Time;durP1;ratioP1;P1;durP2;ratioP2;P2;SDS_P1;SDS_P2;PMS_P1;PMS_P2;Temp;Humidity;BMP_temperature;BMP_pressure;BME280_temperature;BME280_humidity;BME280_pressure;Samples;Min_cycle;Max_cycle;Signal;HPM_P1;HPM_P2
2022/03/09 00:00:47;;;;;;;5.70;4.80;;;-1.30;99.90;-1.70;101469.00;;;;4954875;28;111114;-65
2022/03/09 00:03:12;;;;;;;9.47;5.07;;;-1.30;99.90;-1.80;101475.00;;;;4956017;28;91093;-64
2022/03/09 00:05:38;;;;;;;5.63;5.07;;;-1.40;99.90;-1.80;101475.00;;;;4955333;28;88455;-66
2022/03/09 00:08:04;;;;;;;9.80;4.30;;;-1.40;99.90;-1.90;101481.00;;;;4955107;28;117741;-65
2022/03/09 00:10:29;;;;;;;7.40;4.80;;;-1.40;99.90;-1.90;101485.00;;;;4954623;28;106928;-64
2022/03/09 00:12:55;;;;;;;5.23;4.40;;;-1.50;99.90;-1.90;101477.00;;;;4956252;28;87679;-65
2022/03/09 00:15:21;;;;;;;6.27;4.60;;;-1.50;99.90;-1.90;101474.00;;;;4954827;28;89602;-64
2022/03/09 00:17:47;;;;;;;6.77;4.53;;;-1.50;99.90;-1.90;101473.00;;;;4955014;28;88313;-64
2022/03/09 00:20:13;;;;;;;5.10;4.03;;;-1.50;99.90;-1.90;101481.00;;;;4954003;28;111129;-64
2022/03/09 00:22:38;;;;;;;7.37;3.77;;;-1.50;99.90;-1.90;101475.00;;;;4956332;28;87877;-65
2022/03/09 00:25:04;;;;;;;4.07;3.67;;;-1.40;99.90;-1.90;101478.00;;;;4954026;28;117088;-64
2022/03/09 00:27:31;;;;;;;7.37;4.27;;;-1.10;99.90;-1.90;101470.00;;;;4953264;28;103078;-65
2022/03/09 00:29:57;;;;;;;5.90;3.93;;;-1.50;99.90;-2.00;101479.00;;;;4955433;28;87595;-66
2022/03/09 00:32:22;;;;;;;9.37;4.40;;;-0.70;99.90;-2.00;101474.00;;;;4953623;28;109761;-65
2022/03/09 00:34:48;;;;;;;11.07;3.93;;;-1.30;99.90;-2.00;101481.00;;;;4954270;28;118438;-66
2022/03/09 00:37:14;;;;;;;6.57;4.20;;;-1.50;99.90;-2.00;101474.00;;;;4936115;28;116039;-64
2022/03/09 00:39:39;;;;;;;4.63;3.47;;;-1.60;99.90;-2.10;101469.00;;;;4954116;28;97291;-64
2022/03/09 00:42:06;;;;;;;5.70;4.27;;;-1.60;99.90;-2.10;101465.00;;;;4954601;28;109082;-64
2022/03/09 00:44:31;;;;;;;4.63;3.87;;;-1.60;99.90;-2.10;101475.00;;;;4954416;28;101845;-66
2022/03/09 00:46:57;;;;;;;3.90;3.30;;;-1.70;99.90;-2.10;101472.00;;;;4955033;28;88585;-64
2022/03/09 00:49:23;;;;;;;4.13;3.60;;;-1.70;99.90;-2.10;101469.00;;;;4953209;28;110422;-64
2022/03/09 00:51:49;;;;;;;4.97;4.00;;;-0.80;99.90;-2.20;101463.00;;;;4954891;28;94861;-65
2022/03/09 00:54:15;;;;;;;5.33;3.93;;;-1.80;99.90;-2.20;101457.00;;;;4954924;28;87785;-64
2022/03/09 00:56:41;;;;;;;6.57;3.60;;;-1.80;99.90;-2.20;101461.00;;;;4953634;28;117405;-64
2022/03/09 00:59:06;;;;;;;8.20;5.67;;;-2.40;99.90;-2.30;101460.00;;;;4954314;28;109714;-64
2022/03/09 01:01:32;;;;;;;4.97;3.77;;;-1.80;99.90;-2.30;101460.00;;;;4955065;28;87670;-64
2022/03/09 01:03:58;;;;;;;4.37;3.97;;;-1.90;99.90;-2.30;101463.00;;;;4953322;28;119691;-64
2022/03/09 01:06:23;;;;;;;6.17;4.03;;;-1.80;99.90;-2.30;101466.00;;;;4954865;28;94033;-64
2022/03/09 01:08:49;;;;;;;6.37;4.27;;;-1.80;99.90;-2.30;101453.00;;;;4954731;28;110874;-63
2022/03/09 01:11:15;;;;;;;4.63;3.23;;;-1.90;99.90;-2.30;101455.00;;;;4954835;28;89017;-64
2022/03/09 01:13:41;;;;;;;4.93;3.47;;;-2.00;99.90;-2.40;101454.00;;;;4954030;28;118111;-65
2022/03/09 01:16:06;;;;;;;6.20;3.37;;;-2.00;99.90;-2.40;101458.00;;;;4953525;28;118340;-66
2022/03/09 01:18:32;;;;;;;4.23;3.40;;;-2.00;99.90;-2.50;101449.00;;;;4954188;28;110143;-65
2022/03/09 01:20:58;;;;;;;5.23;3.20;;;-2.10;99.90;-2.50;101450.00;;;;4955922;28;87008;-65
2022/03/09 01:23:24;;;;;;;9.23;3.73;;;-2.10;99.90;-2.50;101447.00;;;;4955195;28;88392;-64
2022/03/09 01:25:51;;;;;;;4.03;3.33;;;-2.10;99.90;-2.50;101462.00;;;;4954107;28;88733;-65
2022/03/09 01:28:18;;;;;;;4.30;3.87;;;-2.00;99.90;-2.50;101456.00;;;;4954131;28;88829;-64
2022/03/09 01:30:43;;;;;;;5.23;3.77;;;-1.30;99.90;-2.50;101461.00;;;;4954415;28;87908;-64
2022/03/09 01:33:09;;;;;;;3.50;3.20;;;-2.00;99.90;-2.50;101457.00;;;;4953667;28;118632;-64
2022/03/09 01:35:35;;;;;;;3.97;3.37;;;-2.10;99.90;-2.50;101450.00;;;;4953144;28;110571;-64
2022/03/09 01:38:01;;;;;;;3.03;2.80;;;-1.90;99.90;-2.50;101460.00;;;;4953938;28;110623;-64
2022/03/09 01:40:26;;;;;;;6.30;3.97;;;-2.00;99.90;-2.40;101463.00;;;;4953441;28;109207;-65
2022/03/09 01:42:53;;;;;;;4.33;3.57;;;-2.00;99.90;-2.50;101460.00;;;;4953717;28;99517;-65
2022/03/09 01:45:20;;;;;;;6.33;3.93;;;-2.10;99.90;-2.50;101448.00;;;;4953600;28;88875;-67
2022/03/09 01:47:47;;;;;;;7.23;4.60;;;-2.00;99.90;-2.50;101456.00;;;;4952582;28;87939;-66
2022/03/09 01:50:13;;;;;;;5.57;3.53;;;-2.10;99.90;-2.60;101456.00;;;;4954108;28;88118;-65
2022/03/09 01:52:41;;;;;;;4.00;3.57;;;-2.10;99.90;-2.60;101457.00;;;;4954107;28;88694;-66
2022/03/09 01:55:08;;;;;;;4.47;3.90;;;-2.10;99.90;-2.60;101446.00;;;;4953975;28;87904;-65
2022/03/09 01:57:34;;;;;;;4.13;3.20;;;-2.20;99.90;-2.60;101459.00;;;;4953621;28;91536;-66
2022/03/09 02:00:00;;;;;;;6.03;3.57;;;-2.10;99.90;-2.70;101453.00;;;;4951472;28;109302;-65
2022/03/09 02:02:27;;;;;;;5.93;3.57;;;-2.30;99.90;-2.70;101440.00;;;;4955596;28;88026;-65
2022/03/09 02:04:52;;;;;;;4.97;3.50;;;-2.20;99.90;-2.70;101441.00;;;;4957649;28;88702;-65
2022/03/09 02:09:41;;;;;;;5.20;3.87;;;-2.30;99.90;-2.70;101437.00;;;;4955665;28;97159;-66
2022/03/09 02:10:04;;;;;;;4.73;3.70;;;-2.20;99.90;-2.70;101450.00;;;;4957899;28;87780;-65
2022/03/09 02:12:30;;;;;;;6.57;3.30;;;-2.30;99.90;-2.80;101444.00;;;;4957479;28;101052;-65
2022/03/09 02:14:56;;;;;;;4.47;3.40;;;-2.40;99.90;-2.80;101446.00;;;;4955969;28;116418;-65
2022/03/09 02:17:27;;;;;;;5.23;4.40;;;-2.30;99.90;-2.80;101446.00;;;;4956968;28;88747;-65
2022/03/09 02:19:55;;;;;;;3.37;2.90;;;-2.40;99.90;-2.90;101442.00;;;;4988772;28;87597;-65
2022/03/09 02:22:37;;;;;;;2.73;2.40;;;-2.40;99.90;-2.90;101437.00;;;;4957250;28;88504;-65
2022/03/09 02:25:08;;;;;;;5.33;3.37;;;-2.40;99.90;-2.90;101437.00;;;;4956521;28;88300;-65
2022/03/09 02:27:35;;;;;;;3.00;2.60;;;-2.40;99.90;-2.90;101432.00;;;;4956638;28;99621;-66
2022/03/09 02:30:01;;;;;;;6.10;3.93;;;-2.40;99.90;-2.90;101421.00;;;;4956677;28;87587;-66
2022/03/09 02:32:28;;;;;;;6.57;3.60;;;-2.40;99.90;-2.90;101433.00;;;;4957110;28;88675;-67
2022/03/09 02:34:53;;;;;;;2.97;2.70;;;-2.40;99.90;-2.90;101435.00;;;;4955699;28;87092;-65
2022/03/09 02:37:19;;;;;;;4.27;2.73;;;-2.40;99.90;-2.90;101439.00;;;;4956199;28;98253;-66
2022/03/09 02:39:45;;;;;;;4.17;3.77;;;-2.50;99.90;-3.00;101436.00;;;;4956585;28;98925;-66
2022/03/09 02:42:11;;;;;;;3.73;3.03;;;-2.40;99.90;-3.00;101438.00;;;;4955302;28;118761;-65
2022/03/09 02:44:37;;;;;;;3.17;2.87;;;-2.50;99.90;-3.00;101448.00;;;;4956739;28;88145;-65
2022/03/09 02:47:04;;;;;;;5.53;3.57;;;-2.60;99.90;-3.10;101437.00;;;;4955988;28;104549;-65
2022/03/09 02:49:29;;;;;;;3.80;3.33;;;-2.60;99.90;-3.10;101437.00;;;;4956261;28;92145;-65
2022/03/09 02:51:55;;;;;;;4.37;2.87;;;-2.60;99.90;-3.10;101442.00;;;;4956924;28;88141;-65
2022/03/09 02:54:21;;;;;;;5.40;3.47;;;-2.70;99.90;-3.10;101429.00;;;;4953491;28;118573;-65
2022/03/09 02:56:47;;;;;;;5.03;3.50;;;-2.60;99.90;-3.10;101434.00;;;;4955666;28;110611;-65
2022/03/09 02:59:13;;;;;;;4.30;2.87;;;-1.80;99.90;-3.10;101440.00;;;;4955548;28;87552;-66
2022/03/09 03:01:39;;;;;;;4.87;4.13;;;-2.70;99.90;-3.20;101429.00;;;;4956679;28;89281;-65
2022/03/09 03:04:05;;;;;;;5.50;3.40;;;-2.70;99.90;-3.20;101440.00;;;;4956773;28;88665;-65
2022/03/09 03:06:31;;;;;;;6.17;3.63;;;-2.70;99.90;-3.30;101434.00;;;;4954982;28;94669;-65
2022/03/09 03:08:56;;;;;;;5.67;3.63;;;-2.00;99.90;-3.30;101433.00;;;;4955768;28;108224;-65
2022/03/09 03:11:22;;;;;;;3.87;3.07;;;-2.80;99.90;-3.30;101435.00;;;;4955342;28;118336;-65
2022/03/09 03:13:51;;;;;;;4.27;3.60;;;-2.80;99.90;-3.30;101427.00;;;;4955070;28;102304;-65
2022/03/09 03:16:17;;;;;;;3.77;3.23;;;-1.90;99.90;-3.40;101433.00;;;;4956195;28;87890;-65
2022/03/09 03:18:42;;;;;;;4.10;3.37;;;-2.90;99.90;-3.40;101430.00;;;;4955214;28;110461;-65
2022/03/09 03:21:08;;;;;;;3.83;3.13;;;-2.90;99.90;-3.50;101437.00;;;;4954630;28;117156;-65
2022/03/09 03:23:36;;;;;;;6.87;3.63;;;-3.00;99.90;-3.50;101434.00;;;;4956260;28;87371;-66
2022/03/09 03:26:05;;;;;;;4.70;4.23;;;-3.10;99.90;-3.50;101425.00;;;;4955201;28;106919;-67
2022/03/09 03:28:31;;;;;;;7.80;4.20;;;-3.00;99.90;-3.50;101426.00;;;;4956425;28;87694;-65
2022/03/09 03:30:57;;;;;;;6.90;3.63;;;-2.30;99.90;-3.50;101411.00;;;;4956012;28;89276;-66
2022/03/09 03:33:22;;;;;;;4.87;4.27;;;-3.00;99.90;-3.50;101438.00;;;;4954940;28;110903;-65
2022/03/09 03:35:49;;;;;;;4.50;3.73;;;-3.00;99.90;-3.50;101426.00;;;;4956443;28;87785;-66
2022/03/09 03:38:16;;;;;;;6.27;3.20;;;-3.00;99.90;-3.50;101421.00;;;;4955971;28;87909;-66
2022/03/09 03:40:42;;;;;;;3.07;2.77;;;-3.10;99.90;-3.50;101432.00;;;;4956317;28;88393;-66
2022/03/09 03:43:08;;;;;;;4.37;3.77;;;-3.10;99.90;-3.50;101433.00;;;;4955657;28;89661;-66
2022/03/09 03:45:34;;;;;;;6.20;3.27;;;-3.00;99.90;-3.60;101440.00;;;;4955807;28;89061;-66
2022/03/09 03:48:00;;;;;;;10.13;3.63;;;-3.00;99.90;-3.60;101431.00;;;;4955207;28;98477;-66
2022/03/09 03:50:26;;;;;;;3.83;2.93;;;-3.10;99.90;-3.60;101431.00;;;;4954032;28;87734;-66
2022/03/09 03:52:52;;;;;;;5.73;3.67;;;-3.10;99.90;-3.70;101438.00;;;;4954312;28;117394;-67
2022/03/09 03:55:18;;;;;;;5.37;3.40;;;-3.20;99.90;-3.70;101436.00;;;;4954370;28;109190;-66
2022/03/09 03:57:44;;;;;;;5.93;3.90;;;-3.20;99.90;-3.70;101422.00;;;;4954611;28;109491;-66
2022/03/09 04:00:12;;;;;;;6.57;3.17;;;-3.20;99.90;-3.70;101431.00;;;;4954131;28;118007;-67
2022/03/09 04:02:38;;;;;;;4.67;3.77;;;-3.30;99.90;-3.80;101433.00;;;;4955271;28;87937;-66
2022/03/09 04:05:07;;;;;;;3.50;3.10;;;-3.20;99.90;-3.80;101439.00;;;;4955600;28;87835;-66
2022/03/09 04:07:33;;;;;;;3.73;2.93;;;-3.30;99.90;-3.80;101433.00;;;;4955485;28;87737;-66
2022/03/09 04:09:59;;;;;;;5.00;3.70;;;-3.20;99.90;-3.80;101435.00;;;;4954372;28;117605;-67
2022/03/09 04:12:25;;;;;;;4.57;3.80;;;-3.20;99.90;-3.80;101435.00;;;;4952614;28;116484;-68
2022/03/09 04:14:52;;;;;;;5.37;2.37;;;-3.30;99.90;-3.80;101434.00;;;;4955256;28;87971;-67
2022/03/09 04:17:18;;;;;;;3.00;2.60;;;-3.40;99.90;-3.80;101434.00;;;;4954582;28;95357;-67
2022/03/09 04:19:45;;;;;;;7.27;3.40;;;-3.40;99.90;-3.80;101434.00;;;;4954408;28;89959;-66
2022/03/09 04:22:10;;;;;;;6.70;3.33;;;-3.30;99.90;-3.80;101429.00;;;;4955706;28;90052;-67
2022/03/09 04:24:36;;;;;;;4.57;2.60;;;-3.30;99.90;-3.80;101436.00;;;;4954498;28;87572;-66
2022/03/09 04:27:03;;;;;;;5.47;3.43;;;-3.40;99.90;-3.80;101429.00;;;;4954929;28;87858;-67
2022/03/09 04:29:29;;;;;;;3.23;2.80;;;-3.30;99.90;-3.80;101428.00;;;;4955454;28;88895;-67
2022/03/09 04:31:55;;;;;;;3.83;3.37;;;-3.30;99.90;-3.80;101429.00;;;;4954093;28;118428;-67
2022/03/09 04:34:20;;;;;;;5.27;3.67;;;-3.30;99.90;-3.80;101437.00;;;;4954842;28;87877;-66
2022/03/09 04:36:46;;;;;;;8.10;3.43;;;-3.40;99.90;-3.80;101444.00;;;;4955295;28;86940;-66
2022/03/09 04:39:12;;;;;;;4.73;3.23;;;-3.30;99.90;-3.90;101443.00;;;;4952617;28;117799;-67
2022/03/09 04:41:37;;;;;;;3.63;3.33;;;-2.70;99.90;-3.80;101439.00;;;;4954361;28;100504;-67
2022/03/09 04:44:03;;;;;;;5.87;3.57;;;-3.40;99.90;-3.90;101443.00;;;;4953935;28;111468;-67
2022/03/09 04:46:29;;;;;;;6.93;3.73;;;-3.30;99.90;-3.90;101434.00;;;;4952985;28;88771;-67
2022/03/09 04:48:55;;;;;;;3.83;3.20;;;-3.40;99.90;-3.90;101437.00;;;;4951943;28;116715;-66
2022/03/09 04:51:20;;;;;;;7.63;4.17;;;-3.30;99.90;-3.90;101455.00;;;;4954855;28;90453;-66
2022/03/09 04:53:46;;;;;;;9.47;4.90;;;-3.30;99.90;-3.90;101458.00;;;;4954787;28;90571;-66
2022/03/09 04:56:13;;;;;;;14.17;5.97;;;-3.50;99.90;-4.00;101456.00;;;;4954072;28;107948;-66
2022/03/09 04:58:39;;;;;;;7.47;5.83;;;-3.50;99.90;-4.00;101456.00;;;;4953543;28;101535;-66
2022/03/09 05:01:05;;;;;;;8.97;5.23;;;-3.60;99.90;-4.10;101453.00;;;;4954272;28;98960;-66
2022/03/09 05:03:32;;;;;;;6.13;4.73;;;-3.60;99.90;-4.10;101460.00;;;;4953448;28;108887;-66
2022/03/09 05:05:58;;;;;;;6.07;4.47;;;-3.60;99.90;-4.10;101469.00;;;;4951986;28;87740;-66
2022/03/09 05:08:24;;;;;;;4.47;3.53;;;-3.60;99.90;-4.10;101462.00;;;;4952957;28;112525;-66
2022/03/09 05:10:49;;;;;;;10.83;5.70;;;-3.70;99.90;-4.20;101470.00;;;;4953878;28;116580;-66
2022/03/09 05:13:15;;;;;;;8.70;5.00;;;-3.70;99.90;-4.10;101468.00;;;;4954368;28;88195;-66
2022/03/09 05:15:41;;;;;;;4.03;3.47;;;-3.70;99.90;-4.10;101465.00;;;;4954008;28;101687;-66
2022/03/09 05:18:07;;;;;;;9.43;4.67;;;-3.70;99.90;-4.20;101475.00;;;;4957705;28;88577;-66
2022/03/09 05:20:32;;;;;;;8.53;4.13;;;-3.70;99.90;-4.20;101468.00;;;;4959590;28;116817;-69
2022/03/09 05:22:58;;;;;;;4.70;4.00;;;-3.70;99.90;-4.20;101466.00;;;;4956311;28;107830;-66
2022/03/09 05:25:24;;;;;;;4.13;3.70;;;-3.60;99.90;-4.20;101477.00;;;;4954632;28;93844;-66
2022/03/09 05:27:49;;;;;;;4.20;3.47;;;-3.60;99.90;-4.20;101474.00;;;;4952040;28;102697;-68
2022/03/09 05:30:15;;;;;;;3.67;3.13;;;-3.70;99.90;-4.20;101484.00;;;;4952322;28;112385;-66
2022/03/09 05:32:41;;;;;;;4.63;3.27;;;-3.70;99.90;-4.20;101481.00;;;;4950155;28;107966;-67
2022/03/09 05:35:09;;;;;;;8.67;4.10;;;-3.80;99.90;-4.30;101484.00;;;;4951256;28;88129;-67
2022/03/09 05:37:41;;;;;;;6.07;3.73;;;-3.50;99.90;-4.30;101484.00;;;;4954699;28;89070;-67
2022/03/09 05:40:08;;;;;;;8.83;4.63;;;-3.80;99.90;-4.30;101487.00;;;;4953490;28;103494;-67
2022/03/09 05:42:34;;;;;;;9.90;4.30;;;-3.80;99.90;-4.30;101488.00;;;;4954433;28;88386;-67
2022/03/09 05:44:59;;;;;;;5.83;4.30;;;-3.60;99.90;-4.30;101492.00;;;;4953744;28;87906;-67
2022/03/09 05:47:25;;;;;;;5.60;3.70;;;-3.80;99.90;-4.30;101496.00;;;;4953387;28;116837;-67
2022/03/09 05:49:51;;;;;;;6.60;4.60;;;-3.80;99.90;-4.30;101493.00;;;;4955035;28;118617;-67
2022/03/09 05:52:16;;;;;;;5.10;4.20;;;-3.80;99.90;-4.30;101490.00;;;;4957079;28;108657;-67
2022/03/09 05:54:45;;;;;;;9.67;5.73;;;-3.70;99.90;-4.20;101493.00;;;;4956562;28;108039;-67
2022/03/09 05:57:12;;;;;;;3.90;3.60;;;-3.70;99.90;-4.20;101498.00;;;;4988123;27;89441;-67
2022/03/09 05:59:38;;;;;;;4.97;4.07;;;-3.70;99.90;-4.10;101499.00;;;;4955547;28;89201;-67
2022/03/09 06:02:04;;;;;;;7.43;5.03;;;-3.60;99.90;-4.00;101494.00;;;;4956942;28;109647;-67
2022/03/09 06:04:29;;;;;;;14.20;4.40;;;-3.30;99.90;-3.90;101496.00;;;;4956557;28;95860;-66
2022/03/09 06:06:55;;;;;;;10.17;5.33;;;-3.50;99.90;-3.80;101503.00;;;;4955027;28;90112;-67
2022/03/09 06:09:21;;;;;;;7.03;5.10;;;-2.60;99.90;-3.60;101490.00;;;;4956544;28;117770;-67
2022/03/09 06:11:46;;;;;;;10.43;4.70;;;-3.30;99.90;-3.50;101505.00;;;;4987879;28;110226;-67
2022/03/09 06:14:12;;;;;;;8.37;5.10;;;-3.00;99.90;-3.30;101510.00;;;;4957417;28;108989;-68
2022/03/09 06:16:38;;;;;;;11.13;4.70;;;-2.90;99.90;-3.10;101512.00;;;;4970932;28;117853;-68
2022/03/09 06:19:03;;;;;;;10.67;4.83;;;-2.80;99.90;-2.90;101509.00;;;;4956490;28;101307;-67
2022/03/09 06:21:29;;;;;;;8.63;4.87;;;-3.10;99.90;-2.60;101509.00;;;;4987736;28;88799;-68
2022/03/09 06:23:55;;;;;;;5.60;4.27;;;-2.30;99.90;-2.40;101518.00;;;;4955801;28;109535;-67
2022/03/09 06:26:20;;;;;;;7.03;5.00;;;-2.10;99.90;-2.20;101513.00;;;;4957358;28;88241;-67
2022/03/09 06:28:46;;;;;;;5.50;4.70;;;-1.80;99.90;-2.00;101518.00;;;;4955171;28;118360;-67
2022/03/09 06:31:12;;;;;;;6.33;4.57;;;-1.70;99.90;-1.90;101516.00;;;;4956104;28;110328;-67
2022/03/09 06:33:37;;;;;;;6.33;4.27;;;-0.90;99.90;-1.60;101524.00;;;;4955793;28;108629;-67
2022/03/09 06:36:06;;;;;;;6.83;4.73;;;-1.40;99.90;-1.40;101519.00;;;;4955433;28;117833;-67
2022/03/09 06:38:35;;;;;;;7.73;6.37;;;-1.10;99.90;-1.10;101527.00;;;;4956023;28;88769;-67
2022/03/09 06:41:01;;;;;;;7.77;5.30;;;-0.70;99.90;-0.90;101526.00;;;;4956934;28;87508;-66
2022/03/09 06:43:27;;;;;;;8.57;4.27;;;-0.50;99.90;-0.60;101528.00;;;;4956181;28;109170;-66
2022/03/09 06:45:52;;;;;;;6.20;4.53;;;-0.30;99.90;-0.30;101522.00;;;;4953569;28;118434;-66
2022/03/09 06:48:18;;;;;;;9.50;4.80;;;0.00;99.90;0.00;101531.00;;;;4954119;28;117594;-66
2022/03/09 06:50:44;;;;;;;6.73;4.30;;;0.10;99.90;0.20;101541.00;;;;4956820;28;87602;-66
2022/03/09 06:53:10;;;;;;;9.07;4.07;;;0.50;99.90;0.50;101542.00;;;;4955963;28;107334;-66
2022/03/09 06:55:36;;;;;;;13.63;5.23;;;1.50;99.90;0.80;101538.00;;;;4956745;28;88757;-66
2022/03/09 06:58:03;;;;;;;7.57;4.27;;;0.90;99.90;1.10;101544.00;;;;4955317;28;117380;-66
2022/03/09 07:00:29;;;;;;;6.80;4.20;;;2.00;99.90;1.40;101556.00;;;;4956250;28;87491;-66
2022/03/09 07:02:56;;;;;;;8.83;4.67;;;2.30;99.90;1.70;101564.00;;;;4957314;28;87299;-66
2022/03/09 07:05:23;;;;;;;7.13;4.47;;;1.80;99.90;2.00;101572.00;;;;4955742;28;88831;-66
2022/03/09 07:07:49;;;;;;;7.57;4.60;;;2.10;99.90;2.30;101564.00;;;;4956879;28;89515;-66
2022/03/09 07:10:15;;;;;;;6.60;4.97;;;2.40;99.90;2.60;101565.00;;;;4954081;28;88749;-67
2022/03/09 07:12:44;;;;;;;8.57;5.30;;;2.70;99.90;2.90;101565.00;;;;4955073;28;87882;-66
2022/03/09 07:15:10;;;;;;;10.23;5.37;;;2.90;99.90;3.20;101562.00;;;;4956266;28;88272;-66
2022/03/09 07:17:36;;;;;;;7.70;4.53;;;3.50;99.90;3.50;101575.00;;;;4955552;28;88830;-66
2022/03/09 07:20:03;;;;;;;5.93;4.80;;;3.60;99.90;3.80;101572.00;;;;4955979;28;87856;-66
2022/03/09 07:22:29;;;;;;;7.03;4.63;;;3.90;99.90;4.10;101572.00;;;;4955939;28;87966;-66
2022/03/09 07:24:54;;;;;;;6.13;5.13;;;4.20;99.90;4.40;101575.00;;;;4955618;28;112689;-66
2022/03/09 07:27:20;;;;;;;6.03;4.63;;;4.50;99.90;4.70;101580.00;;;;4955361;28;116592;-66
2022/03/09 07:29:46;;;;;;;6.97;4.87;;;4.80;99.90;5.00;101581.00;;;;4955846;28;88072;-66
2022/03/09 07:32:14;;;;;;;12.07;6.33;;;5.10;99.90;5.30;101580.00;;;;4955295;28;108968;-66
2022/03/09 07:34:40;;;;;;;8.27;5.87;;;5.40;99.50;5.60;101583.00;;;;4955006;28;90335;-66
2022/03/09 07:37:06;;;;;;;7.83;5.23;;;5.60;98.40;5.90;101587.00;;;;4955562;28;89660;-66
2022/03/09 07:39:32;;;;;;;8.93;5.27;;;5.90;97.30;6.10;101580.00;;;;4953868;28;87908;-66
2022/03/09 07:41:58;;;;;;;6.77;4.53;;;6.20;96.00;6.40;101580.00;;;;4955829;28;107671;-65
2022/03/09 07:44:24;;;;;;;8.87;5.23;;;6.50;94.50;6.70;101585.00;;;;4955458;28;104323;-67
2022/03/09 07:46:51;;;;;;;7.53;4.70;;;6.70;93.30;6.90;101586.00;;;;4955984;28;88307;-66
2022/03/09 07:49:18;;;;;;;10.07;4.87;;;6.90;91.10;7.00;101593.00;;;;4955496;28;95030;-65
2022/03/09 07:51:46;;;;;;;5.33;4.83;;;7.10;90.00;7.10;101593.00;;;;4956403;28;95693;-66
2022/03/09 07:54:12;;;;;;;10.27;4.40;;;7.20;88.60;7.20;101588.00;;;;4956646;28;88588;-65
2022/03/09 07:56:38;;;;;;;7.93;4.60;;;7.30;86.80;7.40;101578.00;;;;4955569;28;93068;-66
2022/03/09 07:59:05;;;;;;;7.87;4.37;;;7.50;84.30;7.60;101584.00;;;;4954533;28;93909;-66
2022/03/09 08:01:31;;;;;;;8.70;4.53;;;7.70;84.00;7.90;101586.00;;;;4970020;28;89021;-66
2022/03/09 08:03:57;;;;;;;10.30;4.70;;;7.90;82.20;8.20;101580.00;;;;4955957;28;96915;-65
2022/03/09 08:06:23;;;;;;;7.77;4.47;;;8.20;80.70;8.40;101583.00;;;;4954693;28;117826;-65
2022/03/09 08:08:48;;;;;;;8.53;3.83;;;8.50;80.00;8.70;101589.00;;;;4955410;28;109458;-66
2022/03/09 08:11:15;;;;;;;7.13;4.23;;;8.70;78.90;9.00;101592.00;;;;4956327;28;87879;-65
2022/03/09 08:13:40;;;;;;;7.03;4.37;;;8.90;76.20;9.20;101588.00;;;;4955517;28;87524;-66
2022/03/09 08:16:07;;;;;;;8.90;4.17;;;9.20;74.40;9.30;101602.00;;;;4954828;28;118650;-66
2022/03/09 08:18:33;;;;;;;5.63;3.70;;;9.40;72.80;9.60;101608.00;;;;4955313;28;87639;-66
2022/03/09 08:20:59;;;;;;;7.53;4.30;;;9.60;69.90;9.70;101606.00;;;;4954028;28;109269;-67
2022/03/09 08:23:25;;;;;;;11.77;4.87;;;9.70;69.40;9.90;101609.00;;;;4953017;28;103162;-66
2022/03/09 08:25:52;;;;;;;5.77;3.83;;;9.90;67.70;10.10;101606.00;;;;4954643;28;117079;-66
2022/03/09 08:28:18;;;;;;;8.50;4.37;;;10.10;67.20;10.30;101604.00;;;;4955222;28;87686;-66
2022/03/09 08:30:45;;;;;;;8.47;4.33;;;10.30;66.50;10.50;101608.00;;;;4955492;28;87688;-65
2022/03/09 08:33:11;;;;;;;8.03;5.17;;;10.40;64.00;10.60;101601.00;;;;4954771;28;88845;-66
2022/03/09 08:35:37;;;;;;;10.10;3.73;;;10.60;62.20;10.70;101596.00;;;;4954921;28;87719;-66
2022/03/09 08:38:04;;;;;;;5.57;3.30;;;10.70;62.10;10.90;101600.00;;;;4955547;28;87821;-66
2022/03/09 08:40:30;;;;;;;6.93;3.70;;;10.90;62.30;11.30;101605.00;;;;4955428;28;87021;-66
2022/03/09 08:42:56;;;;;;;5.43;3.37;;;11.20;62.10;11.60;101603.00;;;;4952881;28;88690;-66
2022/03/09 08:45:22;;;;;;;5.90;3.20;;;11.50;61.60;12.00;101603.00;;;;4954050;28;118724;-66
2022/03/09 08:47:48;;;;;;;5.43;3.00;;;12.20;61.10;12.40;101603.00;;;;4954231;28;91127;-65
2022/03/09 08:50:13;;;;;;;6.50;3.10;;;12.20;58.90;12.60;101603.00;;;;4954881;28;108824;-65
2022/03/09 08:52:39;;;;;;;6.80;3.83;;;12.40;57.80;12.70;101592.00;;;;4954036;28;117843;-65
2022/03/09 08:55:06;;;;;;;7.70;3.97;;;12.60;57.30;12.90;101599.00;;;;4953410;28;118004;-65
2022/03/09 08:57:31;;;;;;;5.27;2.90;;;12.80;56.50;13.00;101608.00;;;;4955138;28;87633;-65
2022/03/09 08:59:57;;;;;;;3.03;2.10;;;12.90;55.90;13.20;101603.00;;;;4954290;28;108407;-65
2022/03/09 09:02:24;;;;;;;6.20;3.30;;;13.10;55.30;13.50;101613.00;;;;4955895;28;87970;-65
2022/03/09 09:04:50;;;;;;;3.93;2.53;;;13.40;55.20;13.70;101608.00;;;;4953737;28;115242;-66
2022/03/09 09:07:15;;;;;;;5.13;2.40;;;13.60;54.60;14.00;101612.00;;;;4954454;28;108868;-66
2022/03/09 09:09:41;;;;;;;4.67;2.30;;;13.90;54.40;14.20;101618.00;;;;4954401;28;109271;-65
2022/03/09 09:12:08;;;;;;;4.90;3.00;;;14.10;53.90;14.30;101612.00;;;;4956116;28;117582;-65
2022/03/09 09:14:34;;;;;;;3.47;2.80;;;14.30;53.00;14.40;101608.00;;;;4958363;28;89705;-66
2022/03/09 09:17:00;;;;;;;5.07;3.40;;;14.40;52.10;14.60;101607.00;;;;4955731;28;108990;-66
2022/03/09 09:19:26;;;;;;;2.67;2.47;;;14.60;52.00;14.80;101620.00;;;;4957556;28;108635;-66
2022/03/09 09:21:51;;;;;;;4.00;2.70;;;14.80;51.60;15.00;101619.00;;;;4958022;28;88592;-67
2022/03/09 09:24:17;;;;;;;7.37;3.27;;;15.00;51.00;15.20;101608.00;;;;4956025;28;89155;-67
2022/03/09 09:26:43;;;;;;;3.87;2.50;;;15.40;50.80;15.40;101606.00;;;;4957862;28;110932;-67
2022/03/09 09:29:09;;;;;;;3.17;2.43;;;15.40;50.60;15.70;101605.00;;;;4957697;28;108831;-67
2022/03/09 09:31:35;;;;;;;3.67;2.43;;;15.60;49.90;15.90;101608.00;;;;4957901;28;88103;-66
2022/03/09 09:34:02;;;;;;;3.73;2.80;;;15.80;49.30;16.10;101603.00;;;;4957709;28;95698;-66
2022/03/09 09:36:28;;;;;;;7.13;3.10;;;16.70;49.00;16.20;101598.00;;;;4958012;28;89153;-65
2022/03/09 09:38:54;;;;;;;3.85;2.55;;;16.20;48.30;16.40;101604.00;;;;4957633;28;87555;-66
2022/03/09 09:41:24;;;;;;;2.95;2.13;;;16.40;48.00;16.60;101595.00;;;;4957567;28;99232;-65
2022/03/09 09:43:50;;;;;;;4.05;2.33;;;16.50;47.20;16.80;101599.00;;;;4957344;28;88755;-66
2022/03/09 09:46:17;;;;;;;9.15;2.55;;;16.70;46.60;17.00;101590.00;;;;4959571;28;87622;-67
2022/03/09 09:48:46;;;;;;;4.20;2.85;;;16.80;46.20;17.10;101589.00;;;;4957588;28;87895;-69
2022/03/09 09:51:13;;;;;;;4.68;2.88;;;17.00;45.50;17.20;101596.00;;;;4958268;28;87940;-69
2022/03/09 09:53:43;;;;;;;5.93;2.92;;;17.20;45.40;17.40;101591.00;;;;4958569;28;87936;-69
2022/03/09 09:56:10;;;;;;;8.75;4.68;;;17.30;44.70;17.50;101594.00;;;;4958000;28;87834;-69
2022/03/09 09:58:41;;;;;;;4.40;2.58;;;17.40;44.70;17.70;101600.00;;;;4957181;28;87960;-69
2022/03/09 10:01:08;;;;;;;3.28;2.97;;;17.50;44.30;18.00;101601.00;;;;4955178;28;102430;-66
2022/03/09 10:03:34;;;;;;;4.22;2.58;;;17.70;44.10;18.20;101593.00;;;;4957105;28;89541;-68
2022/03/09 10:06:00;;;;;;;4.57;2.85;;;18.00;44.00;18.50;101599.00;;;;4957654;28;87733;-68
2022/03/09 10:08:26;;;;;;;4.00;2.13;;;18.10;43.60;18.70;101598.00;;;;4956041;28;109377;-68
2022/03/09 10:10:58;;;;;;;4.05;2.03;;;18.40;43.30;18.80;101597.00;;;;4957325;28;88284;-68
2022/03/09 10:13:38;;;;;;;3.15;2.10;;;18.50;42.50;19.00;101596.00;;;;4956994;28;87974;-67
2022/03/09 10:16:16;;;;;;;3.47;2.35;;;18.70;41.30;19.10;101596.00;;;;4957513;28;88340;-66
2022/03/09 10:18:54;;;;;;;5.38;2.45;;;18.90;41.00;19.20;101601.00;;;;4955610;28;87138;-68
2022/03/09 10:21:25;;;;;;;3.17;1.88;;;18.90;40.40;19.30;101591.00;;;;4956713;28;87959;-68
2022/03/09 10:24:02;;;;;;;6.05;2.38;;;19.00;40.80;19.50;101594.00;;;;4938480;28;88732;-67
2022/03/09 10:26:48;;;;;;;2.42;1.95;;;19.10;41.10;19.80;101602.00;;;;4956620;28;88830;-68
2022/03/09 10:29:18;;;;;;;4.63;1.80;;;19.40;41.00;19.90;101605.00;;;;4957777;28;87692;-69
2022/03/09 10:31:50;;;;;;;3.00;2.40;;;19.60;40.50;20.10;101606.00;;;;4957525;28;88337;-68
2022/03/09 10:34:25;;;;;;;3.83;2.35;;;19.70;39.80;20.30;101609.00;;;;4956725;28;88718;-68
2022/03/09 10:37:06;;;;;;;4.13;1.85;;;19.90;39.80;20.40;101604.00;;;;4938586;28;87734;-67
2022/03/09 10:39:38;;;;;;;2.58;2.15;;;20.00;39.40;20.40;101604.00;;;;4956657;28;87800;-67
2022/03/09 10:42:25;;;;;;;3.75;2.45;;;20.10;39.10;20.30;101601.00;;;;4957452;28;88427;-68